Terminal Aerodrome Forecast
Issued by NWS Wilmington, OH

Current Version | Previous Version | Graphics & Text | Print | Product List | Glossary On
Versions: 1 2 3 4 5 6 7 8 9 10 11 12 13 14 15 16 17 18 19 20 21 22 23 24
000
FTUS41 KILN 182059 AAA
TAFCVG
TAF AMD
KCVG 182059Z 1821/1924 23010KT P6SM SKC
     FM182300 21008KT P6SM FEW250
     FM191400 21012KT P6SM FEW250=

USA.gov is the U.S. government's official web portal to all federal, state and local government web resources and services.